Time;durP1;ratioP1;P1;durP2;ratioP2;P2;SDS_P1;SDS_P2;PMS_P1;PMS_P2;Temp;Humidity;BMP_temperature;BMP_pressure;BME280_temperature;BME280_humidity;BME280_pressure;Samples;Min_cycle;Max_cycle;Signal;HPM_P1;HPM_P2
2023/07/06 00:02:27;;;;;;;2.88;1.77;;;;;;;;;;8329918;28;20060;-59
2023/07/06 00:06:27;;;;;;;3.75;1.80;;;;;;;;;;8330247;28;20021;-59
2023/07/06 00:10:30;;;;;;;3.17;1.40;;;;;;;;;;8334367;28;20028;-59
2023/07/06 00:14:30;;;;;;;4.10;1.63;;;;;;;;;;8333507;28;20020;-59
2023/07/06 00:18:30;;;;;;;2.27;1.30;;;;;;;;;;8330730;28;20056;-59
2023/07/06 00:22:31;;;;;;;2.92;1.50;;;;;;;;;;8331115;28;20024;-59
2023/07/06 00:26:31;;;;;;;2.35;1.38;;;;;;;;;;8337068;28;20032;-60
2023/07/06 00:34:48;;;;;;;4.53;1.75;;;;;;;;;;8339783;28;20112;-59
2023/07/06 00:38:48;;;;;;;3.03;1.80;;;;;;;;;;8339131;28;20623;-59
2023/07/06 00:42:48;;;;;;;7.32;1.75;;;;;;;;;;8340933;28;20013;-59
2023/07/06 00:46:48;;;;;;;4.43;1.45;;;;;;;;;;8339718;28;20379;-59
2023/07/06 00:50:52;;;;;;;2.23;1.30;;;;;;;;;;8339149;28;21001;-59
2023/07/06 00:54:52;;;;;;;1.98;1.48;;;;;;;;;;8338843;28;20378;-59
2023/07/06 00:59:02;;;;;;;2.13;1.40;;;;;;;;;;8337356;28;20036;-59
2023/07/06 01:03:03;;;;;;;3.65;1.30;;;;;;;;;;8338236;28;20033;-59
2023/07/06 01:07:04;;;;;;;3.42;1.30;;;;;;;;;;8338850;28;20042;-59
2023/07/06 01:11:06;;;;;;;3.53;1.30;;;;;;;;;;8336565;28;20025;-59
2023/07/06 01:15:06;;;;;;;1.80;1.13;;;;;;;;;;8334716;28;20028;-59
2023/07/06 01:19:16;;;;;;;2.70;1.30;;;;;;;;;;8335765;28;20020;-59
2023/07/06 01:23:32;;;;;;;1.80;1.27;;;;;;;;;;8338152;28;20074;-59
2023/07/06 01:27:48;;;;;;;1.95;1.38;;;;;;;;;;8335123;28;20911;-59
2023/07/06 01:32:02;;;;;;;2.28;1.35;;;;;;;;;;8337329;28;20127;-59
2023/07/06 01:36:08;;;;;;;2.38;1.33;;;;;;;;;;8334879;28;20033;-59
2023/07/06 01:40:12;;;;;;;2.22;1.40;;;;;;;;;;8335793;28;20017;-59
2023/07/06 01:44:15;;;;;;;3.92;1.50;;;;;;;;;;8335839;28;20040;-59
2023/07/06 01:48:15;;;;;;;2.08;1.35;;;;;;;;;;8318260;28;20056;-59
2023/07/06 01:52:24;;;;;;;2.97;1.23;;;;;;;;;;8334586;28;20646;-59
2023/07/06 01:56:28;;;;;;;2.90;1.50;;;;;;;;;;8335791;28;20037;-59
2023/07/06 02:00:30;;;;;;;2.78;1.40;;;;;;;;;;8335426;28;20576;-59
2023/07/06 02:04:31;;;;;;;3.05;1.40;;;;;;;;;;8334282;28;20032;-59
2023/07/06 02:08:31;;;;;;;5.07;1.30;;;;;;;;;;8334516;28;20377;-59
2023/07/06 02:12:32;;;;;;;2.67;1.20;;;;;;;;;;8336732;28;20024;-59
2023/07/06 02:16:32;;;;;;;3.25;1.40;;;;;;;;;;8335568;28;20155;-59
2023/07/06 02:20:34;;;;;;;2.00;1.20;;;;;;;;;;8334574;28;20115;-59
2023/07/06 02:24:35;;;;;;;2.22;1.20;;;;;;;;;;8331857;28;20406;-59
2023/07/06 02:28:35;;;;;;;2.35;1.33;;;;;;;;;;8334870;28;20024;-59
2023/07/06 02:32:35;;;;;;;2.92;1.50;;;;;;;;;;8337810;28;20159;-59
2023/07/06 02:36:37;;;;;;;2.08;1.20;;;;;;;;;;8333259;28;20177;-59
2023/07/06 02:40:39;;;;;;;1.77;1.20;;;;;;;;;;8334195;28;20119;-59
2023/07/06 02:44:39;;;;;;;4.85;1.50;;;;;;;;;;8334292;28;20053;-59
2023/07/06 02:48:40;;;;;;;2.78;1.27;;;;;;;;;;8338720;28;20059;-59
2023/07/06 02:52:42;;;;;;;3.33;1.30;;;;;;;;;;8334750;28;20034;-60
2023/07/06 02:56:42;;;;;;;3.38;1.48;;;;;;;;;;8332730;28;20055;-59
2023/07/06 03:00:42;;;;;;;3.35;1.48;;;;;;;;;;8334484;28;20033;-59
2023/07/06 03:04:43;;;;;;;2.47;1.27;;;;;;;;;;8335984;28;20130;-59
2023/07/06 03:08:43;;;;;;;4.30;1.40;;;;;;;;;;8336389;28;20122;-59
2023/07/06 03:12:43;;;;;;;2.42;1.30;;;;;;;;;;8335461;28;20049;-59
2023/07/06 03:16:43;;;;;;;1.73;1.23;;;;;;;;;;8331641;28;20386;-59
2023/07/06 03:20:46;;;;;;;3.35;1.33;;;;;;;;;;8334400;28;20960;-59
2023/07/06 03:24:46;;;;;;;2.75;1.42;;;;;;;;;;8334938;28;20733;-59
2023/07/06 03:28:46;;;;;;;3.95;1.30;;;;;;;;;;8337975;28;20118;-59
2023/07/06 03:32:46;;;;;;;2.30;1.33;;;;;;;;;;8334413;28;20095;-59
2023/07/06 03:36:46;;;;;;;1.58;1.40;;;;;;;;;;8332574;28;20052;-59
2023/07/06 03:40:50;;;;;;;2.95;1.40;;;;;;;;;;8332926;28;20478;-59
2023/07/06 03:44:55;;;;;;;1.75;1.40;;;;;;;;;;8334570;28;20460;-60
2023/07/06 03:48:56;;;;;;;3.33;1.40;;;;;;;;;;8330729;28;20043;-60
2023/07/06 03:52:58;;;;;;;5.63;1.70;;;;;;;;;;8334469;28;20028;-60
2023/07/06 03:56:58;;;;;;;2.58;1.30;;;;;;;;;;8332846;28;20021;-60
2023/07/06 04:00:59;;;;;;;1.93;1.20;;;;;;;;;;8339829;28;20036;-60
2023/07/06 04:04:59;;;;;;;1.27;1.17;;;;;;;;;;8344172;28;20275;-60
2023/07/06 04:08:59;;;;;;;3.60;1.40;;;;;;;;;;8341703;28;20706;-60
2023/07/06 04:12:59;;;;;;;2.37;1.30;;;;;;;;;;8344931;28;20367;-60
2023/07/06 04:17:00;;;;;;;2.00;1.40;;;;;;;;;;8344893;28;20887;-60
2023/07/06 04:21:01;;;;;;;3.63;1.50;;;;;;;;;;8342461;28;20311;-60
2023/07/06 04:25:02;;;;;;;2.15;1.40;;;;;;;;;;8341542;28;20065;-60
2023/07/06 04:29:04;;;;;;;2.15;1.52;;;;;;;;;;8344755;28;20069;-60
2023/07/06 04:33:06;;;;;;;1.80;1.33;;;;;;;;;;8343179;28;20049;-60
2023/07/06 04:37:07;;;;;;;1.50;1.40;;;;;;;;;;8343215;28;20028;-61
2023/07/06 04:41:08;;;;;;;2.63;1.33;;;;;;;;;;8345582;28;20521;-61
2023/07/06 04:45:09;;;;;;;3.63;1.40;;;;;;;;;;8340178;28;20025;-60
2023/07/06 04:49:09;;;;;;;4.20;1.80;;;;;;;;;;8340229;28;20028;-60
2023/07/06 04:53:10;;;;;;;2.35;1.50;;;;;;;;;;8343133;28;20032;-60
2023/07/06 04:57:13;;;;;;;4.07;1.80;;;;;;;;;;8344167;28;20028;-60
2023/07/06 05:01:15;;;;;;;3.85;1.50;;;;;;;;;;8342453;28;20036;-60
2023/07/06 05:05:17;;;;;;;5.77;1.87;;;;;;;;;;8344136;28;20029;-61
2023/07/06 05:09:17;;;;;;;15.52;3.45;;;;;;;;;;8344123;28;20287;-60
2023/07/06 05:13:19;;;;;;;14.77;3.10;;;;;;;;;;8338045;28;20017;-60
2023/07/06 05:17:19;;;;;;;14.60;2.70;;;;;;;;;;8337082;28;20048;-60
2023/07/06 05:21:19;;;;;;;10.53;2.07;;;;;;;;;;8334038;28;20028;-60
2023/07/06 05:25:19;;;;;;;9.77;1.90;;;;;;;;;;8336103;28;20032;-60
2023/07/06 05:29:20;;;;;;;15.00;2.67;;;;;;;;;;8339522;28;20121;-60
2023/07/06 05:33:20;;;;;;;9.25;2.40;;;;;;;;;;8335890;28;20032;-60
2023/07/06 05:37:20;;;;;;;18.38;2.80;;;;;;;;;;8335740;28;20727;-60
2023/07/06 05:41:21;;;;;;;15.90;2.55;;;;;;;;;;8338418;28;20563;-60
2023/07/06 05:45:21;;;;;;;6.95;2.20;;;;;;;;;;8336810;28;20571;-61
2023/07/06 05:49:21;;;;;;;15.13;2.55;;;;;;;;;;8334764;28;20508;-60
2023/07/06 05:53:21;;;;;;;13.45;2.10;;;;;;;;;;8337667;28;20039;-60
2023/07/06 05:57:22;;;;;;;8.90;2.25;;;;;;;;;;8334833;28;20048;-61
2023/07/06 06:01:23;;;;;;;15.20;1.90;;;;;;;;;;8336597;28;20040;-60
2023/07/06 06:05:23;;;;;;;9.48;1.90;;;;;;;;;;8336969;28;20020;-60
2023/07/06 06:09:25;;;;;;;13.07;2.00;;;;;;;;;;8336898;28;20024;-60
2023/07/06 06:13:27;;;;;;;3.65;1.30;;;;;;;;;;8318832;28;20060;-60
2023/07/06 06:17:27;;;;;;;2.95;1.33;;;;;;;;;;8334054;28;20179;-60
2023/07/06 06:21:30;;;;;;;3.15;1.20;;;;;;;;;;8338282;28;20399;-60
2023/07/06 06:25:31;;;;;;;3.45;1.30;;;;;;;;;;8337125;28;20574;-60
2023/07/06 06:29:32;;;;;;;4.93;1.40;;;;;;;;;;8335714;28;20059;-59
2023/07/06 06:33:32;;;;;;;2.95;1.10;;;;;;;;;;8338009;28;20040;-60
2023/07/06 06:37:32;;;;;;;3.60;1.20;;;;;;;;;;8337210;28;20066;-60
2023/07/06 06:41:33;;;;;;;3.90;1.20;;;;;;;;;;8335197;28;20464;-60
2023/07/06 06:45:33;;;;;;;4.82;1.40;;;;;;;;;;8336544;28;20036;-60
2023/07/06 06:49:34;;;;;;;3.23;1.40;;;;;;;;;;8336369;28;20114;-60
2023/07/06 06:53:34;;;;;;;4.95;1.42;;;;;;;;;;8335821;28;20135;-60
2023/07/06 06:57:34;;;;;;;3.42;1.33;;;;;;;;;;8336054;28;20139;-60
2023/07/06 07:01:34;;;;;;;7.55;1.40;;;;;;;;;;8334642;28;20037;-60
2023/07/06 07:05:35;;;;;;;7.75;1.20;;;;;;;;;;8334278;28;20028;-60
2023/07/06 07:09:35;;;;;;;4.97;1.30;;;;;;;;;;8336671;28;20526;-60
2023/07/06 07:13:36;;;;;;;4.22;1.27;;;;;;;;;;8316544;28;20021;-61
2023/07/06 07:17:36;;;;;;;4.68;1.40;;;;;;;;;;8334655;28;20044;-60
2023/07/06 07:21:37;;;;;;;5.20;1.30;;;;;;;;;;8334828;28;20811;-61
2023/07/06 07:25:38;;;;;;;5.03;1.40;;;;;;;;;;8335049;28;20028;-60
2023/07/06 07:29:40;;;;;;;2.63;1.23;;;;;;;;;;8336155;28;20593;-60
2023/07/06 07:33:43;;;;;;;;;;;;;;;;;;8336442;28;20064;-60
2023/07/06 07:37:50;;;;;;;4.13;1.30;;;;;;;;;;8335641;28;19916;-60
2023/07/06 07:41:52;;;;;;;5.00;1.17;;;;;;;;;;8333782;28;20029;-60
2023/07/06 07:45:54;;;;;;;1.48;1.05;;;;;;;;;;8331246;28;20065;-61
2023/07/06 07:49:54;;;;;;;6.87;1.37;;;;;;;;;;8335595;28;20095;-61
2023/07/06 07:53:55;;;;;;;1.40;1.20;;;;;;;;;;8335669;28;20082;-61
2023/07/06 07:57:56;;;;;;;2.38;1.30;;;;;;;;;;8334657;28;20028;-60
2023/07/06 08:01:56;;;;;;;2.05;1.23;;;;;;;;;;8332626;28;20893;-60
2023/07/06 08:05:58;;;;;;;2.65;1.20;;;;;;;;;;8334072;28;20256;-60
2023/07/06 08:09:58;;;;;;;2.92;1.38;;;;;;;;;;8335598;28;20143;-60
2023/07/06 08:13:59;;;;;;;2.03;1.10;;;;;;;;;;8333500;28;20028;-60
2023/07/06 08:18:00;;;;;;;3.73;1.20;;;;;;;;;;8334115;28;20098;-61
2023/07/06 08:22:00;;;;;;;1.88;1.17;;;;;;;;;;8334594;28;20715;-60
2023/07/06 08:26:04;;;;;;;1.83;1.25;;;;;;;;;;8332363;28;20724;-60
2023/07/06 08:30:04;;;;;;;4.97;1.50;;;;;;;;;;8337018;28;20048;-61
2023/07/06 08:34:04;;;;;;;1.77;1.30;;;;;;;;;;8334921;28;20041;-60
2023/07/06 08:38:04;;;;;;;1.75;1.20;;;;;;;;;;8330916;28;20089;-60
2023/07/06 08:42:09;;;;;;;2.28;1.48;;;;;;;;;;8333719;28;20090;-61
2023/07/06 08:46:11;;;;;;;2.25;1.40;;;;;;;;;;8332549;28;20965;-60
2023/07/06 08:50:12;;;;;;;;;;;;;;;;;;8341780;28;20028;-60
2023/07/06 08:54:20;;;;;;;3.05;1.33;;;;;;;;;;8341464;28;20647;-60
2023/07/06 08:58:25;;;;;;;2.00;1.30;;;;;;;;;;8340439;28;20017;-60
2023/07/06 09:02:26;;;;;;;2.38;1.38;;;;;;;;;;8337987;28;20064;-60
2023/07/06 09:06:27;;;;;;;2.38;1.20;;;;;;;;;;8339465;28;20055;-60
2023/07/06 09:10:28;;;;;;;3.95;1.20;;;;;;;;;;8321239;28;20032;-60
2023/07/06 09:14:28;;;;;;;2.70;1.30;;;;;;;;;;8337893;28;20025;-60
2023/07/06 09:18:29;;;;;;;1.50;1.27;;;;;;;;;;8340308;28;20075;-60
2023/07/06 09:22:30;;;;;;;2.08;1.30;;;;;;;;;;8340229;28;20783;-60
2023/07/06 09:26:34;;;;;;;2.35;1.40;;;;;;;;;;8336372;28;20148;-60
2023/07/06 09:30:38;;;;;;;2.33;1.40;;;;;;;;;;8338042;28;20040;-60
2023/07/06 09:34:44;;;;;;;2.15;1.50;;;;;;;;;;8340094;28;20040;-61
2023/07/06 09:38:45;;;;;;;2.58;1.42;;;;;;;;;;8337452;28;20043;-60
2023/07/06 09:42:49;;;;;;;4.03;1.67;;;;;;;;;;8338433;28;20024;-61
2023/07/06 09:46:49;;;;;;;3.50;1.50;;;;;;;;;;8335191;28;20493;-61
2023/07/06 09:50:51;;;;;;;2.28;1.60;;;;;;;;;;8338666;28;20074;-60
2023/07/06 09:54:54;;;;;;;1.60;1.40;;;;;;;;;;8336455;28;20040;-61
2023/07/06 09:58:56;;;;;;;1.85;1.65;;;;;;;;;;8337988;28;20040;-61
2023/07/06 10:03:13;;;;;;;3.43;1.47;;;;;;;;;;8335579;28;20502;-60
2023/07/06 10:07:23;;;;;;;1.20;1.10;;;;;;;;;;8338257;28;20177;-61
2023/07/06 10:11:31;;;;;;;3.45;1.23;;;;;;;;;;8338105;28;20782;-61
2023/07/06 10:15:42;;;;;;;1.92;1.42;;;;;;;;;;8322587;28;20050;-61
2023/07/06 10:19:49;;;;;;;2.10;1.45;;;;;;;;;;8339628;28;20046;-60
2023/07/06 10:24:00;;;;;;;2.97;1.25;;;;;;;;;;8334642;28;20115;-60
2023/07/06 10:28:04;;;;;;;2.88;1.23;;;;;;;;;;8336434;28;20107;-60
2023/07/06 10:32:07;;;;;;;3.60;1.30;;;;;;;;;;8332980;28;20574;-61
2023/07/06 10:36:10;;;;;;;6.15;1.50;;;;;;;;;;8336030;28;20098;-61
2023/07/06 10:40:15;;;;;;;3.17;1.30;;;;;;;;;;8335981;28;20398;-60
2023/07/06 10:44:35;;;;;;;3.28;1.45;;;;;;;;;;8337824;28;20162;-60
2023/07/06 10:48:36;;;;;;;2.22;1.50;;;;;;;;;;8336098;28;20040;-60
2023/07/06 10:52:40;;;;;;;2.58;1.60;;;;;;;;;;8337069;28;20296;-60
2023/07/06 10:56:41;;;;;;;3.60;1.35;;;;;;;;;;8334145;28;20076;-60
2023/07/06 11:00:42;;;;;;;1.83;1.40;;;;;;;;;;8335675;28;20043;-61
2023/07/06 11:04:51;;;;;;;1.33;1.23;;;;;;;;;;8332684;28;20059;-61
2023/07/06 11:09:10;;;;;;;2.38;1.30;;;;;;;;;;8333070;28;20033;-61
2023/07/06 11:13:12;;;;;;;2.40;1.30;;;;;;;;;;8335029;28;20489;-60
2023/07/06 11:17:18;;;;;;;5.88;1.52;;;;;;;;;;8333369;28;20471;-61
2023/07/06 11:21:34;;;;;;;4.35;1.45;;;;;;;;;;8332313;28;20568;-61
2023/07/06 11:25:36;;;;;;;2.45;1.30;;;;;;;;;;8333862;28;20025;-61
2023/07/06 11:29:36;;;;;;;1.50;1.40;;;;;;;;;;8334333;28;20025;-61
2023/07/06 11:33:43;;;;;;;2.33;1.27;;;;;;;;;;8331245;28;20037;-61
2023/07/06 11:37:59;;;;;;;2.53;1.20;;;;;;;;;;8328898;28;20101;-61
2023/07/06 11:42:02;;;;;;;6.32;1.67;;;;;;;;;;8332863;28;20012;-61
2023/07/06 11:46:11;;;;;;;2.25;1.50;;;;;;;;;;8332445;28;20853;-60
2023/07/06 11:50:13;;;;;;;3.15;1.15;;;;;;;;;;8333372;28;20062;-61
2023/07/06 11:54:29;;;;;;;2.38;1.25;;;;;;;;;;8334386;28;21381;-61
2023/07/06 11:58:54;;;;;;;1.92;1.30;;;;;;;;;;8332839;28;20029;-61
2023/07/06 12:03:02;;;;;;;3.05;1.60;;;;;;;;;;8333959;28;20740;-61
2023/07/06 12:07:24;;;;;;;3.63;1.40;;;;;;;;;;8330441;28;20634;-61
2023/07/06 12:11:25;;;;;;;1.90;1.30;;;;;;;;;;8329557;28;20137;-61
2023/07/06 12:15:25;;;;;;;2.13;1.40;;;;;;;;;;8327478;28;20055;-61
2023/07/06 12:19:25;;;;;;;3.13;1.50;;;;;;;;;;8330255;28;20366;-60
2023/07/06 12:23:26;;;;;;;1.92;1.30;;;;;;;;;;8335104;28;20048;-61
2023/07/06 12:27:27;;;;;;;2.33;1.40;;;;;;;;;;8333501;28;20127;-61
2023/07/06 12:31:28;;;;;;;2.83;1.27;;;;;;;;;;8333451;28;20056;-61
2023/07/06 12:35:29;;;;;;;1.43;1.10;;;;;;;;;;8333215;28;20362;-61
2023/07/06 12:39:35;;;;;;;3.50;1.43;;;;;;;;;;8334081;28;20024;-61
2023/07/06 12:43:36;;;;;;;2.00;1.48;;;;;;;;;;8336531;28;20867;-61
2023/07/06 12:47:37;;;;;;;2.87;1.37;;;;;;;;;;8330952;28;20500;-61
2023/07/06 12:51:40;;;;;;;2.22;1.48;;;;;;;;;;8335192;28;20037;-61
2023/07/06 12:55:44;;;;;;;1.65;1.35;;;;;;;;;;8328058;28;20029;-61
2023/07/06 12:59:49;;;;;;;2.65;1.33;;;;;;;;;;8335485;28;20143;-61
2023/07/06 13:03:58;;;;;;;1.65;1.40;;;;;;;;;;8336835;28;20457;-61
2023/07/06 13:08:05;;;;;;;1.67;1.48;;;;;;;;;;8331482;28;20111;-61
2023/07/06 13:12:09;;;;;;;2.70;1.50;;;;;;;;;;8335482;28;20139;-61
2023/07/06 13:16:11;;;;;;;2.22;1.40;;;;;;;;;;8336551;28;20045;-61
2023/07/06 13:20:11;;;;;;;2.90;1.50;;;;;;;;;;8316911;28;20021;-61
2023/07/06 13:24:13;;;;;;;2.08;1.42;;;;;;;;;;8336163;28;20044;-61
2023/07/06 13:28:14;;;;;;;2.15;1.52;;;;;;;;;;8334467;28;20078;-61
2023/07/06 13:32:15;;;;;;;2.15;1.40;;;;;;;;;;8331905;28;20032;-61
2023/07/06 13:36:18;;;;;;;1.65;1.55;;;;;;;;;;8332019;28;20033;-61
2023/07/06 13:40:20;;;;;;;2.22;1.48;;;;;;;;;;8333818;28;20028;-62
2023/07/06 13:44:20;;;;;;;1.63;1.35;;;;;;;;;;8335797;28;20029;-61
2023/07/06 13:48:21;;;;;;;2.23;1.40;;;;;;;;;;8331901;28;20154;-61
2023/07/06 13:52:21;;;;;;;1.23;1.13;;;;;;;;;;8330948;28;20024;-61
2023/07/06 13:56:21;;;;;;;2.57;1.30;;;;;;;;;;8331397;28;20039;-61
2023/07/06 14:00:22;;;;;;;2.30;1.40;;;;;;;;;;8330583;28;20486;-61
2023/07/06 14:04:23;;;;;;;2.28;1.33;;;;;;;;;;8332780;28;20021;-61
2023/07/06 14:08:24;;;;;;;2.72;1.50;;;;;;;;;;8331658;28;20028;-61
2023/07/06 14:12:25;;;;;;;3.00;1.50;;;;;;;;;;8332368;28;20036;-61
2023/07/06 14:16:25;;;;;;;1.70;1.30;;;;;;;;;;8329473;28;20051;-61
2023/07/06 14:20:26;;;;;;;2.05;1.50;;;;;;;;;;8330989;28;20052;-61
2023/07/06 14:24:26;;;;;;;1.37;1.27;;;;;;;;;;8335369;28;20107;-60
2023/07/06 14:28:27;;;;;;;1.30;1.20;;;;;;;;;;8331164;28;20322;-60
2023/07/06 14:32:28;;;;;;;1.48;1.38;;;;;;;;;;8330778;28;20051;-60
2023/07/06 14:36:28;;;;;;;1.60;1.50;;;;;;;;;;8331977;28;20228;-60
2023/07/06 14:40:28;;;;;;;6.25;1.40;;;;;;;;;;8328777;28;20324;-60
2023/07/06 14:44:28;;;;;;;4.63;1.50;;;;;;;;;;8325485;28;20490;-60
2023/07/06 14:48:29;;;;;;;2.20;1.33;;;;;;;;;;8323321;28;20485;-60
2023/07/06 14:52:30;;;;;;;3.42;1.45;;;;;;;;;;8330191;28;20279;-61
2023/07/06 14:56:30;;;;;;;3.03;1.60;;;;;;;;;;8334545;28;20699;-60
2023/07/06 15:00:31;;;;;;;2.17;1.38;;;;;;;;;;8332799;28;20036;-61
2023/07/06 15:04:31;;;;;;;1.80;1.38;;;;;;;;;;8331558;28;20024;-61
2023/07/06 15:08:31;;;;;;;3.37;1.60;;;;;;;;;;8332090;28;20112;-61
2023/07/06 15:12:32;;;;;;;3.17;1.40;;;;;;;;;;8328441;28;20052;-61
2023/07/06 15:16:32;;;;;;;1.80;1.30;;;;;;;;;;8327500;28;20224;-61
2023/07/06 15:20:33;;;;;;;2.38;1.45;;;;;;;;;;8330825;28;20024;-61
2023/07/06 15:24:33;;;;;;;3.30;1.30;;;;;;;;;;8331254;28;20033;-61
2023/07/06 15:28:34;;;;;;;2.45;1.35;;;;;;;;;;8330218;28;20294;-61
2023/07/06 15:32:35;;;;;;;1.55;1.45;;;;;;;;;;8326883;28;20036;-61
2023/07/06 15:36:35;;;;;;;1.50;1.30;;;;;;;;;;8328221;28;20082;-61
2023/07/06 15:40:35;;;;;;;1.77;1.30;;;;;;;;;;8328207;28;20207;-61
2023/07/06 15:44:36;;;;;;;3.28;1.40;;;;;;;;;;8328157;28;20031;-61
2023/07/06 15:48:36;;;;;;;2.25;1.40;;;;;;;;;;8331399;28;20857;-60
2023/07/06 15:52:37;;;;;;;5.82;1.50;;;;;;;;;;8332732;28;20037;-60
2023/07/06 15:56:37;;;;;;;3.30;1.50;;;;;;;;;;8328275;28;20036;-60
2023/07/06 16:00:37;;;;;;;1.77;1.30;;;;;;;;;;8329120;28;20060;-61
2023/07/06 16:04:37;;;;;;;1.80;1.40;;;;;;;;;;8330131;28;20025;-61
2023/07/06 16:08:38;;;;;;;2.38;1.77;;;;;;;;;;8326440;28;20979;-61
2023/07/06 16:12:38;;;;;;;1.60;1.30;;;;;;;;;;8331702;28;20024;-60
2023/07/06 16:16:38;;;;;;;1.50;1.40;;;;;;;;;;8326896;28;20386;-61
2023/07/06 16:20:38;;;;;;;1.90;1.67;;;;;;;;;;8327857;28;20036;-60
2023/07/06 16:24:40;;;;;;;3.20;1.50;;;;;;;;;;8328287;28;20131;-61
2023/07/06 16:28:41;;;;;;;2.20;1.50;;;;;;;;;;8331104;28;20028;-60
2023/07/06 16:32:41;;;;;;;1.67;1.30;;;;;;;;;;8332091;28;20079;-61
2023/07/06 16:36:42;;;;;;;1.55;1.45;;;;;;;;;;8331383;28;20036;-60
2023/07/06 16:40:43;;;;;;;1.30;1.20;;;;;;;;;;8331676;28;20027;-60
2023/07/06 16:44:43;;;;;;;1.30;1.20;;;;;;;;;;8330171;28;20024;-61
2023/07/06 16:48:43;;;;;;;1.40;1.27;;;;;;;;;;8334664;28;20113;-60
2023/07/06 16:52:44;;;;;;;1.80;1.40;;;;;;;;;;8335508;28;20111;-60
2023/07/06 16:56:44;;;;;;;1.13;1.13;;;;;;;;;;8331145;28;20035;-61
2023/07/06 17:00:44;;;;;;;1.77;1.33;;;;;;;;;;8332735;28;20595;-61
2023/07/06 17:04:44;;;;;;;1.40;1.30;;;;;;;;;;8333302;28;20017;-61
2023/07/06 17:08:45;;;;;;;4.32;1.20;;;;;;;;;;8336552;28;20127;-60
2023/07/06 17:12:45;;;;;;;2.55;1.20;;;;;;;;;;8338667;28;20143;-60
2023/07/06 17:16:45;;;;;;;1.23;1.13;;;;;;;;;;8333619;28;20126;-61
2023/07/06 17:20:45;;;;;;;1.40;1.30;;;;;;;;;;8338752;28;20031;-60
2023/07/06 17:24:45;;;;;;;1.35;1.25;;;;;;;;;;8336801;28;20025;-60
2023/07/06 17:28:45;;;;;;;1.30;1.20;;;;;;;;;;8336245;28;20025;-60
2023/07/06 17:32:46;;;;;;;2.42;1.10;;;;;;;;;;8336843;28;20032;-61
2023/07/06 17:36:46;;;;;;;2.00;1.30;;;;;;;;;;8337367;28;20113;-60
2023/07/06 17:40:56;;;;;;;2.55;1.45;;;;;;;;;;8337554;28;20048;-60
2023/07/06 17:44:57;;;;;;;1.30;1.20;;;;;;;;;;8333752;28;20332;-60
2023/07/06 17:48:57;;;;;;;1.77;1.48;;;;;;;;;;8336851;28;20051;-60
2023/07/06 17:52:57;;;;;;;1.30;1.20;;;;;;;;;;8339074;28;20032;-61
2023/07/06 17:56:57;;;;;;;1.38;1.20;;;;;;;;;;8339989;28;20025;-61
2023/07/06 18:00:57;;;;;;;1.27;1.10;;;;;;;;;;8338693;28;20065;-61
2023/07/06 18:04:58;;;;;;;2.33;1.20;;;;;;;;;;8337452;28;20017;-61
2023/07/06 18:08:58;;;;;;;1.40;1.20;;;;;;;;;;8339284;28;20398;-60
2023/07/06 18:12:59;;;;;;;2.10;1.30;;;;;;;;;;8339359;28;20077;-61
2023/07/06 18:17:00;;;;;;;2.33;1.10;;;;;;;;;;8339551;28;20543;-60
2023/07/06 18:21:00;;;;;;;1.77;1.30;;;;;;;;;;8338126;28;20820;-60
2023/07/06 18:25:00;;;;;;;1.48;1.20;;;;;;;;;;8338950;28;20120;-61
2023/07/06 18:29:00;;;;;;;1.30;1.20;;;;;;;;;;8335421;28;20032;-60
2023/07/06 18:33:01;;;;;;;2.70;1.30;;;;;;;;;;8338006;28;20078;-60
2023/07/06 18:37:01;;;;;;;1.23;1.13;;;;;;;;;;8338200;28;20020;-60
2023/07/06 18:41:02;;;;;;;1.73;1.27;;;;;;;;;;8336458;28;20785;-60
2023/07/06 18:45:03;;;;;;;1.52;1.27;;;;;;;;;;8337570;28;20108;-60
2023/07/06 18:49:03;;;;;;;1.42;1.30;;;;;;;;;;8334756;28;20178;-60
2023/07/06 18:53:04;;;;;;;2.78;1.33;;;;;;;;;;8338312;28;20040;-61
2023/07/06 18:57:04;;;;;;;1.17;1.10;;;;;;;;;;8333362;28;20035;-60
2023/07/06 19:01:04;;;;;;;1.55;1.13;;;;;;;;;;8317168;28;20043;-60
2023/07/06 19:05:06;;;;;;;1.40;1.20;;;;;;;;;;8337620;28;20160;-60
2023/07/06 19:09:06;;;;;;;2.13;1.40;;;;;;;;;;8336937;28;20029;-60
2023/07/06 19:13:07;;;;;;;1.98;1.50;;;;;;;;;;8336617;28;20127;-60
2023/07/06 19:17:08;;;;;;;4.13;1.40;;;;;;;;;;8338505;28;20380;-60
2023/07/06 19:21:12;;;;;;;1.40;1.30;;;;;;;;;;8333059;28;20505;-61
2023/07/06 19:25:13;;;;;;;3.40;1.23;;;;;;;;;;8331238;28;20024;-60
2023/07/06 19:29:13;;;;;;;1.23;1.13;;;;;;;;;;8315455;28;20075;-60
2023/07/06 19:33:13;;;;;;;2.10;1.15;;;;;;;;;;8328738;28;20204;-60
2023/07/06 19:37:14;;;;;;;1.50;1.27;;;;;;;;;;8327259;28;20024;-60
2023/07/06 19:41:14;;;;;;;1.10;1.00;;;;;;;;;;8331062;28;20029;-60
2023/07/06 19:45:14;;;;;;;2.08;1.30;;;;;;;;;;8323251;28;20398;-60
2023/07/06 19:49:14;;;;;;;3.80;1.20;;;;;;;;;;8324302;28;20842;-60
2023/07/06 19:53:15;;;;;;;1.27;1.17;;;;;;;;;;8324982;28;20441;-60
2023/07/06 19:57:15;;;;;;;1.50;1.17;;;;;;;;;;8322640;28;20025;-60
2023/07/06 20:01:18;;;;;;;2.13;1.17;;;;;;;;;;8324689;28;20675;-60
2023/07/06 20:05:18;;;;;;;3.53;1.30;;;;;;;;;;8305989;28;20792;-60
2023/07/06 20:09:18;;;;;;;7.53;1.40;;;;;;;;;;8323519;28;20304;-60
2023/07/06 20:13:19;;;;;;;6.35;1.30;;;;;;;;;;8326604;28;20584;-60
2023/07/06 20:17:19;;;;;;;5.13;1.40;;;;;;;;;;8325695;28;20048;-60
2023/07/06 20:21:19;;;;;;;2.20;1.27;;;;;;;;;;8326951;28;20443;-60
2023/07/06 20:25:19;;;;;;;1.60;1.20;;;;;;;;;;8326366;28;20139;-60
2023/07/06 20:29:19;;;;;;;2.55;1.48;;;;;;;;;;8332390;28;20927;-60
2023/07/06 20:33:21;;;;;;;1.40;1.30;;;;;;;;;;8324276;28;20060;-60
2023/07/06 20:37:21;;;;;;;1.77;1.40;;;;;;;;;;8329061;28;20021;-60
2023/07/06 20:41:21;;;;;;;1.33;1.23;;;;;;;;;;8331379;28;20048;-59
2023/07/06 20:45:21;;;;;;;1.45;1.30;;;;;;;;;;8334762;28;20021;-60
2023/07/06 20:49:22;;;;;;;1.75;1.50;;;;;;;;;;8334230;28;20025;-60
2023/07/06 20:53:22;;;;;;;6.50;1.70;;;;;;;;;;8338748;28;20028;-60
2023/07/06 20:57:22;;;;;;;2.63;1.33;;;;;;;;;;8339719;28;20505;-59
2023/07/06 21:01:22;;;;;;;2.17;1.20;;;;;;;;;;8340385;28;20440;-60
2023/07/06 21:05:22;;;;;;;1.70;1.50;;;;;;;;;;8338455;28;20892;-60
2023/07/06 21:09:23;;;;;;;1.20;1.10;;;;;;;;;;8339423;28;20032;-60
2023/07/06 21:13:23;;;;;;;2.80;1.17;;;;;;;;;;8337460;28;20148;-60
2023/07/06 21:17:23;;;;;;;1.80;1.30;;;;;;;;;;8338944;28;20040;-60
2023/07/06 21:21:23;;;;;;;1.30;1.20;;;;;;;;;;8338184;28;20825;-60
2023/07/06 21:25:24;;;;;;;3.80;1.10;;;;;;;;;;8339815;28;20024;-60
2023/07/06 21:29:24;;;;;;;1.58;1.25;;;;;;;;;;8337033;28;20140;-60
2023/07/06 21:33:24;;;;;;;1.30;1.20;;;;;;;;;;8336843;28;20359;-61
2023/07/06 21:37:25;;;;;;;1.88;1.30;;;;;;;;;;8339172;28;20286;-60
2023/07/06 21:41:25;;;;;;;1.70;1.27;;;;;;;;;;8339515;28;20843;-60
2023/07/06 21:45:25;;;;;;;1.97;1.10;;;;;;;;;;8335233;28;20856;-60
2023/07/06 21:49:26;;;;;;;1.40;1.30;;;;;;;;;;8335974;28;20270;-60
2023/07/06 21:53:26;;;;;;;2.15;1.17;;;;;;;;;;8337650;28;20091;-60
2023/07/06 21:57:26;;;;;;;2.25;1.40;;;;;;;;;;8335528;28;20029;-60
2023/07/06 22:01:27;;;;;;;2.10;1.30;;;;;;;;;;8339647;28;20037;-60
2023/07/06 22:05:27;;;;;;;1.67;1.20;;;;;;;;;;8338929;28;20025;-60
2023/07/06 22:09:27;;;;;;;1.93;1.30;;;;;;;;;;8340120;28;20082;-60
2023/07/06 22:13:28;;;;;;;2.55;1.40;;;;;;;;;;8338899;28;20104;-60
2023/07/06 22:17:28;;;;;;;3.13;1.30;;;;;;;;;;8338334;28;20110;-60
2023/07/06 22:21:28;;;;;;;1.40;1.15;;;;;;;;;;8338696;28;20020;-60
2023/07/06 22:25:28;;;;;;;3.63;1.53;;;;;;;;;;8335924;28;20017;-60
2023/07/06 22:29:29;;;;;;;1.67;1.23;;;;;;;;;;8337758;28;20271;-60
2023/07/06 22:33:30;;;;;;;2.13;1.30;;;;;;;;;;8338535;28;20041;-60
2023/07/06 22:37:30;;;;;;;1.40;1.30;;;;;;;;;;8332601;28;20028;-60
2023/07/06 22:41:31;;;;;;;1.70;1.48;;;;;;;;;;8335496;28;20016;-60
2023/07/06 22:45:31;;;;;;;4.80;1.37;;;;;;;;;;8335735;28;20549;-60
2023/07/06 22:49:31;;;;;;;1.60;1.30;;;;;;;;;;8334730;28;20420;-60
2023/07/06 22:53:31;;;;;;;2.50;1.48;;;;;;;;;;8331586;28;20036;-60
2023/07/06 22:57:32;;;;;;;2.90;1.38;;;;;;;;;;8334023;28;20044;-60
2023/07/06 23:01:32;;;;;;;1.48;1.35;;;;;;;;;;8332720;28;20061;-60
2023/07/06 23:05:32;;;;;;;2.30;1.40;;;;;;;;;;8333001;28;20054;-60
2023/07/06 23:09:33;;;;;;;1.88;1.25;;;;;;;;;;8331951;28;20040;-60
2023/07/06 23:13:33;;;;;;;3.72;1.40;;;;;;;;;;8333128;28;20089;-61
2023/07/06 23:17:33;;;;;;;1.55;1.20;;;;;;;;;;8330733;28;20409;-60
2023/07/06 23:21:40;;;;;;;1.95;1.30;;;;;;;;;;8334958;28;20020;-60
2023/07/06 23:25:41;;;;;;;5.40;1.38;;;;;;;;;;8334175;28;20094;-61
2023/07/06 23:29:43;;;;;;;1.52;1.27;;;;;;;;;;8326308;28;20017;-60
2023/07/06 23:33:44;;;;;;;1.40;1.05;;;;;;;;;;8333596;28;20389;-60
2023/07/06 23:37:45;;;;;;;1.27;1.10;;;;;;;;;;8332169;28;20047;-60
2023/07/06 23:41:45;;;;;;;2.88;1.30;;;;;;;;;;8333555;28;20359;-60
2023/07/06 23:45:45;;;;;;;1.63;1.25;;;;;;;;;;8333257;28;20411;-60
2023/07/06 23:49:45;;;;;;;2.10;1.30;;;;;;;;;;8333692;28;20027;-60
2023/07/06 23:53:46;;;;;;;2.22;1.27;;;;;;;;;;8333411;28;20024;-61
2023/07/06 23:57:46;;;;;;;3.50;1.25;;;;;;;;;;8332111;28;20052;-60
